createdAt,value
2023-03-01T00:00:39.774Z,10.43
2023-03-01T00:03:12.242Z,8.37
2023-03-01T00:05:47.939Z,9.93
2023-03-01T00:08:17.701Z,10.97
2023-03-01T00:10:47.501Z,8.67
2023-03-01T00:13:17.294Z,10.50
2023-03-01T00:15:47.047Z,10.90
2023-03-01T00:18:19.444Z,10.47
2023-03-01T00:20:53.963Z,9.73
2023-03-01T00:23:23.791Z,8.87
2023-03-01T00:25:53.595Z,10.10
2023-03-01T00:28:23.855Z,9.57
2023-03-01T00:30:53.676Z,12.00
2023-03-01T00:33:26.261Z,10.13
2023-03-01T00:35:56.041Z,9.23
2023-03-01T00:38:25.792Z,8.90
2023-03-01T00:40:55.687Z,6.10
2023-03-01T00:43:25.579Z,5.20
2023-03-01T00:45:55.334Z,8.40
2023-03-01T00:48:27.792Z,6.80
2023-03-01T00:50:57.535Z,6.70
2023-03-01T00:53:29.769Z,6.23
2023-03-01T00:56:01.102Z,7.50
2023-03-01T00:58:31.042Z,7.00
2023-03-01T01:01:00.809Z,9.50
2023-03-01T01:03:33.174Z,10.07
2023-03-01T01:06:10.444Z,13.73
2023-03-01T01:08:41.051Z,13.80
2023-03-01T01:11:13.083Z,11.60
2023-03-01T01:13:43.265Z,8.10
2023-03-01T01:16:13.149Z,8.37
2023-03-01T01:18:45.875Z,10.60
2023-03-01T01:21:18.890Z,11.60
2023-03-01T01:23:49.742Z,10.00
2023-03-01T01:26:22.365Z,10.23
2023-03-01T01:28:52.293Z,10.20
2023-03-01T01:31:26.267Z,11.47
2023-03-01T01:33:59.643Z,7.17
2023-03-01T01:36:29.817Z,7.20
2023-03-01T01:45:41.808Z,5.73
2023-03-01T01:48:21.021Z,6.17
2023-03-01T01:50:59.367Z,5.67
2023-03-01T01:53:30.303Z,7.60
2023-03-01T01:56:04.302Z,6.70
2023-03-01T01:58:34.662Z,5.07
2023-03-01T02:01:04.836Z,7.20
2023-03-01T02:03:38.742Z,6.60
2023-03-01T02:06:19.325Z,4.97
2023-03-01T02:08:52.762Z,5.23
2023-03-01T02:11:23.148Z,3.90
2023-03-01T02:13:53.087Z,4.77
2023-03-01T02:16:23.444Z,6.10
2023-03-01T02:18:54.467Z,7.00
2023-03-01T02:21:40.313Z,5.20
2023-03-01T02:24:21.371Z,6.70
2023-03-01T02:26:56.350Z,5.27
2023-03-01T02:29:30.583Z,7.73
2023-03-01T02:32:04.169Z,12.07
2023-03-01T02:34:35.356Z,12.80
2023-03-01T02:37:07.857Z,80.97
2023-03-01T02:39:43.126Z,10.47
2023-03-01T02:42:16.368Z,10.03
2023-03-01T02:44:48.804Z,7.43
2023-03-01T02:47:18.545Z,60.30
2023-03-01T02:49:48.309Z,12.33
2023-03-01T02:52:34.402Z,25.93
2023-03-01T02:55:07.363Z,16.50
2023-03-01T02:57:44.208Z,17.07
2023-03-01T03:00:23.068Z,9.07
2023-03-01T03:02:54.737Z,9.27
2023-03-01T03:05:27.021Z,7.90
2023-03-01T03:07:58.002Z,10.97
2023-03-01T03:10:40.685Z,10.60
2023-03-01T03:13:12.903Z,13.83
2023-03-01T03:15:46.240Z,14.97
2023-03-01T03:18:21.619Z,12.77
2023-03-01T03:20:54.135Z,9.77
2023-03-01T03:23:24.858Z,13.63
2023-03-01T03:25:55.144Z,12.37
2023-03-01T03:28:25.012Z,22.13
2023-03-01T03:30:57.473Z,22.60
2023-03-01T03:33:27.302Z,24.43
2023-03-01T03:35:57.231Z,20.70
2023-03-01T03:38:27.336Z,26.23
2023-03-01T03:41:05.005Z,11.73
2023-03-01T03:43:36.711Z,10.73
2023-03-01T03:46:09.598Z,12.13
2023-03-01T03:48:41.477Z,11.93
2023-03-01T03:51:13.518Z,9.77
2023-03-01T03:53:44.161Z,9.10
2023-03-01T03:56:14.697Z,8.07
2023-03-01T03:58:44.589Z,8.00
2023-03-01T04:01:16.964Z,7.97
2023-03-01T04:03:47.638Z,7.10
2023-03-01T04:06:17.957Z,8.63
2023-03-01T04:08:47.704Z,7.33
2023-03-01T04:11:32.414Z,7.43
2023-03-01T04:14:02.701Z,7.80
2023-03-01T04:16:35.107Z,7.87
2023-03-01T04:19:04.891Z,7.73
2023-03-01T04:21:34.631Z,7.33
2023-03-01T04:24:04.883Z,7.33
2023-03-01T04:26:34.669Z,8.77
2023-03-01T04:29:04.442Z,6.47
2023-03-01T04:31:36.835Z,7.87
2023-03-01T04:34:06.601Z,8.43
2023-03-01T04:36:37.018Z,8.53
2023-03-01T04:39:13.420Z,8.20
2023-03-01T04:41:44.314Z,9.43
2023-03-01T04:44:14.109Z,11.30
2023-03-01T04:46:46.486Z,10.67
2023-03-01T04:49:17.137Z,9.10
2023-03-01T04:51:46.934Z,7.97
2023-03-01T04:54:19.929Z,8.67
2023-03-01T04:56:49.725Z,9.00
2023-03-01T04:59:25.079Z,8.37
2023-03-01T05:02:01.551Z,8.33
2023-03-01T05:04:31.398Z,8.33
2023-03-01T05:07:01.209Z,8.17
2023-03-01T05:09:31.075Z,8.70
2023-03-01T05:12:00.912Z,8.77
2023-03-01T05:14:30.718Z,9.30
2023-03-01T05:17:05.013Z,8.27
2023-03-01T05:19:34.831Z,7.97
2023-03-01T05:22:07.510Z,8.10
2023-03-01T05:24:39.725Z,8.17
2023-03-01T05:27:10.071Z,8.87
2023-03-01T05:29:40.709Z,8.27
2023-03-01T05:32:16.799Z,8.43
2023-03-01T05:34:47.472Z,8.33
2023-03-01T05:37:17.762Z,11.80
2023-03-01T05:39:48.927Z,9.03
2023-03-01T05:42:20.999Z,9.87
2023-03-01T05:44:50.807Z,8.97
2023-03-01T05:47:23.311Z,8.50
2023-03-01T05:49:53.489Z,8.03
2023-03-01T05:52:23.374Z,7.70
2023-03-01T05:54:53.266Z,8.37
2023-03-01T05:57:23.147Z,8.27
2023-03-01T05:59:53.031Z,7.87
2023-03-01T06:02:25.552Z,8.03
2023-03-01T06:04:55.549Z,7.90
2023-03-01T06:07:25.537Z,8.27
2023-03-01T06:09:55.416Z,7.97
2023-03-01T06:12:25.316Z,7.53
2023-03-01T06:14:55.132Z,6.63
2023-03-01T06:17:27.586Z,8.13
2023-03-01T06:19:57.335Z,7.80
2023-03-01T06:22:27.574Z,7.43
2023-03-01T06:24:57.326Z,10.67
2023-03-01T06:27:27.087Z,7.50
2023-03-01T06:29:56.881Z,9.13
2023-03-01T06:32:29.391Z,8.40
2023-03-01T06:34:59.690Z,7.63
2023-03-01T06:37:29.842Z,7.33
2023-03-01T06:39:59.621Z,8.33
2023-03-01T06:42:29.427Z,7.07
2023-03-01T06:44:59.162Z,6.77
2023-03-01T06:47:31.518Z,7.10
2023-03-01T06:50:01.340Z,7.93
2023-03-01T06:52:31.162Z,7.63
2023-03-01T06:55:00.970Z,6.80
2023-03-01T06:57:30.970Z,7.23
2023-03-01T07:00:00.734Z,7.83
2023-03-01T07:02:33.324Z,9.60
2023-03-01T07:05:03.102Z,7.37
2023-03-01T07:07:32.850Z,7.70
2023-03-01T07:10:03.410Z,9.40
2023-03-01T07:12:33.167Z,9.13
2023-03-01T07:15:02.967Z,6.50
2023-03-01T07:17:40.527Z,6.97
2023-03-01T07:20:11.393Z,7.70
2023-03-01T07:22:43.788Z,7.93
2023-03-01T07:25:14.088Z,8.47
2023-03-01T07:27:43.911Z,7.63
2023-03-01T07:30:14.869Z,7.60
2023-03-01T07:32:47.325Z,7.53
2023-03-01T07:35:20.686Z,8.07
2023-03-01T07:37:50.420Z,10.70
2023-03-01T07:40:20.415Z,11.23
2023-03-01T07:42:50.249Z,9.87
2023-03-01T07:45:20.120Z,9.87
2023-03-01T07:47:54.565Z,8.70
2023-03-01T07:50:25.189Z,9.00
2023-03-01T07:52:55.291Z,8.83
2023-03-01T07:55:25.188Z,8.80
2023-03-01T07:57:55.042Z,7.93
2023-03-01T08:00:25.365Z,8.80
2023-03-01T08:03:00.360Z,9.80
2023-03-01T08:05:30.568Z,7.43
2023-03-01T08:08:00.401Z,7.37
2023-03-01T08:10:30.271Z,8.87
2023-03-01T08:13:00.130Z,7.63
2023-03-01T08:15:30.396Z,9.07
2023-03-01T08:18:25.258Z,9.57
2023-03-01T08:21:14.176Z,10.20
2023-03-01T08:23:44.846Z,10.80
2023-03-01T08:26:16.696Z,11.53
2023-03-01T08:29:13.694Z,11.83
2023-03-01T08:31:46.630Z,12.43
2023-03-01T08:34:21.079Z,12.70
2023-03-01T08:36:52.866Z,10.97
2023-03-01T08:39:24.193Z,11.77
2023-03-01T08:41:54.061Z,11.27
2023-03-01T08:44:24.724Z,11.40
2023-03-01T08:46:56.789Z,11.73
2023-03-01T08:49:29.275Z,12.27
2023-03-01T08:51:59.141Z,12.20
2023-03-01T08:54:29.314Z,14.23
2023-03-01T08:57:00.278Z,15.17
2023-03-01T08:59:31.021Z,16.50
2023-03-01T09:02:00.985Z,17.40
2023-03-01T09:04:34.450Z,17.80
2023-03-01T09:07:04.272Z,17.40
2023-03-01T09:09:34.119Z,16.17
2023-03-01T09:12:10.820Z,19.00
2023-03-01T09:14:43.653Z,21.50
2023-03-01T09:17:13.627Z,18.73
2023-03-01T09:19:46.336Z,16.33
2023-03-01T09:22:16.168Z,15.60
2023-03-01T09:24:46.046Z,17.67
2023-03-01T09:27:15.872Z,15.87
2023-03-01T09:29:45.639Z,17.13
2023-03-01T09:32:15.852Z,18.97
2023-03-01T09:35:00.784Z,19.63
2023-03-01T09:37:31.087Z,20.87
2023-03-01T09:40:01.113Z,25.27
2023-03-01T09:42:34.715Z,25.77
2023-03-01T09:45:08.099Z,26.70
2023-03-01T09:47:41.620Z,25.33
2023-03-01T09:50:18.623Z,25.50
2023-03-01T09:52:52.566Z,23.53
2023-03-01T09:55:32.480Z,20.97
2023-03-01T09:58:10.629Z,18.43
2023-03-01T10:00:45.887Z,20.07
2023-03-01T10:03:21.922Z,17.83
2023-03-01T10:06:04.077Z,22.87
2023-03-01T10:08:40.081Z,24.43
2023-03-01T10:11:25.106Z,20.43
2023-03-01T10:14:00.874Z,18.00
2023-03-01T10:16:35.989Z,17.83
2023-03-01T10:19:08.846Z,17.97
2023-03-01T10:21:48.851Z,14.70
2023-03-01T10:24:22.801Z,18.60
2023-03-01T10:27:00.339Z,18.37
2023-03-01T10:29:35.633Z,15.40
2023-03-01T10:32:08.781Z,17.17
2023-03-01T10:34:40.404Z,15.20
2023-03-01T10:37:19.466Z,17.30
2023-03-01T10:40:00.194Z,15.60
2023-03-01T10:42:33.400Z,23.27
2023-03-01T10:45:20.545Z,17.93
2023-03-01T10:47:50.382Z,18.27
2023-03-01T10:50:24.864Z,16.60
2023-03-01T10:53:07.764Z,20.50
2023-03-01T10:55:40.808Z,18.63
2023-03-01T10:58:20.263Z,18.47
2023-03-01T11:00:52.475Z,16.53
2023-03-01T11:03:26.000Z,19.87
2023-03-01T11:05:59.455Z,15.20
2023-03-01T11:08:50.593Z,16.37
2023-03-01T11:11:28.863Z,14.00
2023-03-01T11:14:01.757Z,16.10
2023-03-01T11:16:36.124Z,16.40
2023-03-01T11:19:19.470Z,19.03
2023-03-01T11:22:03.836Z,16.90
2023-03-01T11:24:43.463Z,16.73
2023-03-01T11:27:21.108Z,18.23
2023-03-01T11:29:56.443Z,14.80
2023-03-01T11:32:30.954Z,14.90
2023-03-01T11:35:05.716Z,15.73
2023-03-01T11:37:42.062Z,15.30
2023-03-01T11:40:33.932Z,13.83
2023-03-01T11:43:18.998Z,14.57
2023-03-01T11:52:15.399Z,10.50
2023-03-01T11:55:49.427Z,11.87
2023-03-01T11:58:33.883Z,11.77
2023-03-01T12:01:15.123Z,13.30
2023-03-01T12:04:17.833Z,13.73
2023-03-01T12:07:00.408Z,13.80
2023-03-01T12:09:53.478Z,15.07
2023-03-01T12:12:38.899Z,13.13
2023-03-01T12:15:37.406Z,16.27
2023-03-01T12:18:20.134Z,13.27
2023-03-01T12:21:01.152Z,12.50
2023-03-01T12:24:18.184Z,12.47
2023-03-01T12:26:59.399Z,13.67
2023-03-01T12:29:35.453Z,12.93
2023-03-01T12:32:38.868Z,13.53
2023-03-01T12:35:33.235Z,11.50
2023-03-01T12:38:15.049Z,13.80
2023-03-01T12:41:05.560Z,12.60
2023-03-01T12:43:48.306Z,13.53
2023-03-01T12:46:30.438Z,14.00
2023-03-01T12:49:11.885Z,12.73
2023-03-01T12:51:43.915Z,11.60
2023-03-01T12:54:19.952Z,10.93
2023-03-01T12:56:53.592Z,13.83
2023-03-01T12:59:29.762Z,11.63
2023-03-01T13:02:08.698Z,13.87
2023-03-01T13:04:52.334Z,13.07
2023-03-01T13:07:32.357Z,13.90
2023-03-01T13:10:15.816Z,10.87
2023-03-01T13:13:04.130Z,12.00
2023-03-01T13:15:40.995Z,11.93
2023-03-01T13:21:02.697Z,11.17
2023-03-01T13:23:52.479Z,12.43
2023-03-01T13:26:26.420Z,11.17
2023-03-01T13:29:01.860Z,11.47
2023-03-01T13:32:05.785Z,10.30
2023-03-01T13:34:50.855Z,13.07
2023-03-01T13:37:30.630Z,13.47
2023-03-01T13:40:09.081Z,14.03
2023-03-01T13:42:56.269Z,12.40
2023-03-01T13:45:41.024Z,12.17
2023-03-01T13:48:17.635Z,11.80
2023-03-01T13:50:54.751Z,12.30
2023-03-01T13:53:30.175Z,13.30
2023-03-01T13:56:04.591Z,13.33
2023-03-01T13:58:39.548Z,12.53
2023-03-01T14:01:10.823Z,12.50
2023-03-01T14:03:45.769Z,13.97
2023-03-01T14:06:21.003Z,12.10
2023-03-01T14:08:56.775Z,15.40
2023-03-01T14:12:02.381Z,15.00
2023-03-01T14:14:51.642Z,12.67
2023-03-01T14:17:38.724Z,13.17
2023-03-01T14:20:16.275Z,10.93
2023-03-01T14:22:47.420Z,13.13
2023-03-01T14:25:27.613Z,11.90
2023-03-01T14:28:05.744Z,12.63
2023-03-01T14:30:41.393Z,13.03
2023-03-01T14:33:23.783Z,12.13
2023-03-01T14:36:00.007Z,14.63
2023-03-01T14:38:37.590Z,14.43
2023-03-01T14:41:13.797Z,14.20
2023-03-01T14:43:48.808Z,13.97
2023-03-01T14:46:24.262Z,14.17
2023-03-01T14:48:56.596Z,16.33
2023-03-01T14:51:26.850Z,19.60
2023-03-01T14:54:00.512Z,23.20
2023-03-01T14:56:48.496Z,25.43
2023-03-01T14:59:18.276Z,22.47
2023-03-01T15:01:48.760Z,21.07
2023-03-01T15:04:18.803Z,24.10
2023-03-01T15:06:49.492Z,20.33
2023-03-01T15:09:21.240Z,23.10
2023-03-01T15:12:23.872Z,21.63
2023-03-01T15:15:03.826Z,22.77
2023-03-01T15:17:37.043Z,21.53
2023-03-01T15:20:11.356Z,22.13
2023-03-01T15:22:41.222Z,23.23
2023-03-01T15:25:19.347Z,23.70
2023-03-01T15:27:50.313Z,24.47
2023-03-01T15:30:28.418Z,20.57
2023-03-01T15:33:23.962Z,24.80
2023-03-01T15:35:55.560Z,20.50
2023-03-01T15:38:34.643Z,19.93
2023-03-01T15:41:06.510Z,22.20
2023-03-01T15:43:50.894Z,19.70
2023-03-01T15:46:29.016Z,22.20
2023-03-01T15:49:01.363Z,22.60
2023-03-01T15:51:34.192Z,23.33
2023-03-01T15:54:08.124Z,19.63
2023-03-01T15:56:38.058Z,20.50
2023-03-01T15:59:08.377Z,24.20
2023-03-01T16:01:40.846Z,19.73
2023-03-01T16:04:10.997Z,24.93
2023-03-01T16:06:41.021Z,25.30
2023-03-01T16:09:11.590Z,23.53
2023-03-01T16:11:43.520Z,22.33
2023-03-01T16:14:13.644Z,27.13
2023-03-01T16:16:46.312Z,21.37
2023-03-01T16:19:19.948Z,22.07
2023-03-01T16:21:52.900Z,24.10
2023-03-01T16:24:22.660Z,24.77
2023-03-01T16:26:52.621Z,25.03
2023-03-01T16:29:22.488Z,23.93
2023-03-01T16:31:54.982Z,23.33
2023-03-01T16:34:25.129Z,21.93
2023-03-01T16:36:54.882Z,24.17
2023-03-01T16:39:24.715Z,21.17
2023-03-01T16:41:54.521Z,20.77
2023-03-01T16:44:24.513Z,19.03
2023-03-01T16:46:57.195Z,21.03
2023-03-01T16:49:26.954Z,19.67
2023-03-01T16:51:57.641Z,18.80
2023-03-01T16:54:27.435Z,19.17
2023-03-01T16:56:57.242Z,20.73
2023-03-01T16:59:29.407Z,19.60
2023-03-01T17:02:01.835Z,22.47
2023-03-01T17:04:31.644Z,18.87
2023-03-01T17:07:01.598Z,20.20
2023-03-01T17:09:31.597Z,17.37
2023-03-01T17:12:01.683Z,19.40
2023-03-01T17:14:31.506Z,20.53
2023-03-01T17:17:04.180Z,19.90
2023-03-01T17:19:34.818Z,18.30
2023-03-01T17:22:04.841Z,18.40
2023-03-01T17:24:36.438Z,17.97
2023-03-01T17:27:06.652Z,18.40
2023-03-01T17:29:37.005Z,17.17
2023-03-01T17:32:10.117Z,16.27
2023-03-01T17:34:40.710Z,13.57
2023-03-01T17:37:10.765Z,13.63
2023-03-01T17:39:40.567Z,14.37
2023-03-01T17:42:10.453Z,13.67
2023-03-01T17:44:41.386Z,15.27
2023-03-01T17:47:15.416Z,13.77
2023-03-01T17:49:45.269Z,14.20
2023-03-01T17:52:15.035Z,13.53
2023-03-01T17:54:44.898Z,14.17
2023-03-01T17:57:15.397Z,13.53
2023-03-01T17:59:45.244Z,14.67
2023-03-01T18:02:19.359Z,18.23
2023-03-01T18:04:49.396Z,16.60
2023-03-01T18:07:19.163Z,15.40
2023-03-01T18:09:48.987Z,16.40
2023-03-01T18:12:18.767Z,13.27
2023-03-01T18:14:53.757Z,12.27
2023-03-01T18:17:27.558Z,12.23
2023-03-01T18:19:57.417Z,13.33
2023-03-01T18:22:27.223Z,11.00
2023-03-01T18:24:57.111Z,11.83
2023-03-01T18:27:27.417Z,11.73
2023-03-01T18:29:57.280Z,11.07
2023-03-01T18:32:29.851Z,15.10
2023-03-01T18:34:59.880Z,11.93
2023-03-01T18:37:29.682Z,12.53
2023-03-01T18:39:59.599Z,11.37
2023-03-01T18:42:29.367Z,12.03
2023-03-01T18:44:59.394Z,11.73
2023-03-01T18:47:31.777Z,12.20
2023-03-01T18:50:01.633Z,10.60
2023-03-01T18:52:31.437Z,13.23
2023-03-01T18:55:01.275Z,13.43
2023-03-01T18:57:31.626Z,12.17
2023-03-01T19:00:01.415Z,13.90
2023-03-01T19:02:33.977Z,16.80
2023-03-01T19:05:04.067Z,16.50
2023-03-01T19:07:34.424Z,16.00
2023-03-01T19:10:04.549Z,17.20
2023-03-01T19:12:35.252Z,16.00
2023-03-01T19:15:05.263Z,16.77
2023-03-01T19:17:38.143Z,16.67
2023-03-01T19:20:09.911Z,15.40
2023-03-01T19:22:40.600Z,14.37
2023-03-01T19:25:11.703Z,19.37
2023-03-01T19:27:41.555Z,15.67
2023-03-01T19:30:31.246Z,14.37
2023-03-01T19:33:03.650Z,14.63
2023-03-01T19:35:33.675Z,15.63
2023-03-01T19:38:03.563Z,15.77
2023-03-01T19:40:33.325Z,14.20
2023-03-01T19:43:03.078Z,12.80
2023-03-01T19:45:34.679Z,14.07
2023-03-01T19:48:08.130Z,14.60
2023-03-01T19:50:38.530Z,13.57
2023-03-01T19:53:08.284Z,15.67
2023-03-01T19:55:40.058Z,17.07
2023-03-01T19:58:10.735Z,17.00
2023-03-01T20:00:41.243Z,16.50
2023-03-01T20:03:13.748Z,21.00
2023-03-01T20:05:43.911Z,20.73
2023-03-01T20:08:13.739Z,19.13
2023-03-01T20:10:43.526Z,21.03
2023-03-01T20:13:13.411Z,20.33
2023-03-01T20:15:45.668Z,19.80
2023-03-01T20:18:18.175Z,20.07
2023-03-01T20:20:52.163Z,20.97
2023-03-01T20:23:22.289Z,20.03
2023-03-01T20:25:52.135Z,19.10
2023-03-01T20:28:22.870Z,20.43
2023-03-01T20:30:52.984Z,18.70
2023-03-01T20:33:26.217Z,23.33
2023-03-01T20:35:56.265Z,21.90
2023-03-01T20:38:26.414Z,22.67
2023-03-01T20:41:01.023Z,22.60
2023-03-01T20:43:31.132Z,20.57
2023-03-01T20:46:01.085Z,21.90
2023-03-01T20:48:33.644Z,21.00
2023-03-01T20:51:07.391Z,25.77
2023-03-01T20:53:37.156Z,22.63
2023-03-01T20:56:07.835Z,26.43
2023-03-01T20:58:38.071Z,22.37
2023-03-01T21:01:09.410Z,24.77
2023-03-01T21:03:41.824Z,26.23
2023-03-01T21:06:11.696Z,28.33
2023-03-01T21:08:41.580Z,26.67
2023-03-01T21:11:11.508Z,25.83
2023-03-01T21:13:41.890Z,22.23
2023-03-01T21:16:14.776Z,24.60
2023-03-01T21:18:47.167Z,21.07
2023-03-01T21:21:18.896Z,19.27
2023-03-01T21:23:49.370Z,21.50
2023-03-01T21:26:20.734Z,22.77
2023-03-01T21:28:51.546Z,17.40
2023-03-01T21:31:22.892Z,17.77
2023-03-01T21:33:57.054Z,17.70
2023-03-01T21:36:28.091Z,20.63
2023-03-01T21:38:58.287Z,18.60
2023-03-01T21:41:36.982Z,22.50
2023-03-01T21:44:09.413Z,21.70
2023-03-01T21:46:41.288Z,20.83
2023-03-01T21:49:26.153Z,19.43
2023-03-01T21:52:01.293Z,17.90
2023-03-01T21:54:32.009Z,20.20
2023-03-01T21:57:02.420Z,17.57
2023-03-01T21:59:32.236Z,18.00
2023-03-01T22:02:02.031Z,20.23
2023-03-01T22:04:34.441Z,19.57
2023-03-01T22:07:04.227Z,20.77
2023-03-01T22:09:36.331Z,19.27
2023-03-01T22:12:06.739Z,19.80
2023-03-01T22:14:36.538Z,19.90
2023-03-01T22:32:58.116Z,18.93
2023-03-01T22:45:52.732Z,21.03
2023-03-01T22:48:22.617Z,18.20
2023-03-01T22:50:55.951Z,18.23
2023-03-01T22:53:26.013Z,13.03
2023-03-01T22:55:55.841Z,12.73
2023-03-01T22:58:28.252Z,12.97
2023-03-01T23:00:59.573Z,10.73
2023-03-01T23:03:29.478Z,9.67
2023-03-01T23:05:59.266Z,10.03
2023-03-01T23:08:29.017Z,11.00
2023-03-01T23:10:59.266Z,10.30
2023-03-01T23:13:33.282Z,9.17
2023-03-01T23:16:03.118Z,12.40
2023-03-01T23:18:32.925Z,10.83
2023-03-01T23:21:03.515Z,9.50
2023-03-01T23:23:36.456Z,11.77
2023-03-01T23:26:06.430Z,9.43
2023-03-01T23:28:40.767Z,10.93
2023-03-01T23:31:13.867Z,14.70
2023-03-01T23:33:45.350Z,11.27
2023-03-01T23:36:20.107Z,13.80
2023-03-01T23:38:51.077Z,11.23
2023-03-01T23:41:22.799Z,9.53
2023-03-01T23:43:56.723Z,7.83
2023-03-01T23:46:29.147Z,12.00
2023-03-01T23:48:59.900Z,10.03
2023-03-01T23:51:29.975Z,8.80
2023-03-01T23:54:06.209Z,6.33
2023-03-01T23:56:38.582Z,8.90
2023-03-01T23:59:14.525Z,8.33
